createdAt,value
2022-12-28T00:01:50.352Z,11.00
2022-12-28T00:11:57.615Z,11.10
2022-12-28T00:22:04.578Z,14.90
2022-12-28T00:32:11.663Z,13.40
2022-12-28T00:42:18.967Z,11.60
2022-12-28T00:52:25.972Z,11.20
2022-12-28T01:02:33.108Z,10.70
2022-12-28T01:12:40.516Z,10.30
2022-12-28T01:22:46.177Z,12.70
2022-12-28T01:32:53.188Z,14.10
2022-12-28T01:43:00.166Z,13.00
2022-12-28T01:53:07.864Z,11.80
2022-12-28T02:03:20.180Z,11.50
2022-12-28T02:13:28.724Z,10.80
2022-12-28T02:23:37.552Z,11.50
2022-12-28T02:33:45.918Z,12.70
2022-12-28T02:43:54.297Z,15.30
2022-12-28T02:54:05.150Z,10.90
2022-12-28T03:04:16.323Z,10.20
2022-12-28T03:14:21.627Z,9.20
2022-12-28T03:24:48.414Z,14.40
2022-12-28T03:34:55.617Z,14.00
2022-12-28T03:45:02.042Z,9.30
2022-12-28T03:55:07.273Z,11.50
2022-12-28T04:05:15.744Z,10.70
2022-12-28T04:15:23.397Z,9.10
2022-12-28T04:25:30.579Z,9.50
2022-12-28T04:35:37.707Z,15.60
2022-12-28T04:45:44.751Z,12.00
2022-12-28T04:55:52.363Z,10.00
2022-12-28T05:06:01.666Z,10.00
2022-12-28T05:16:12.559Z,14.30
2022-12-28T05:26:22.996Z,12.10
2022-12-28T05:36:32.795Z,13.00
2022-12-28T05:46:40.068Z,21.30
2022-12-28T05:56:47.741Z,13.80
2022-12-28T06:06:55.338Z,12.60
2022-12-28T06:17:02.618Z,18.60
2022-12-28T06:27:09.856Z,15.60
2022-12-28T06:37:17.150Z,17.30
2022-12-28T06:47:24.349Z,20.40
2022-12-28T06:57:31.424Z,16.00
2022-12-28T07:07:38.480Z,15.10
2022-12-28T07:17:44.629Z,16.30
2022-12-28T07:27:51.943Z,17.80
2022-12-28T07:38:00.058Z,16.80
2022-12-28T07:48:06.005Z,14.80
2022-12-28T07:58:12.457Z,15.40
2022-12-28T08:08:19.784Z,15.40
2022-12-28T08:18:27.724Z,15.30
2022-12-28T08:28:35.311Z,13.70
2022-12-28T08:38:44.505Z,6.70
2022-12-28T08:48:53.014Z,5.20
2022-12-28T08:59:01.467Z,7.30
2022-12-28T09:09:13.199Z,6.60
2022-12-28T09:19:21.146Z,3.80
2022-12-28T09:29:28.928Z,4.30
2022-12-28T09:39:36.582Z,4.70
2022-12-28T09:49:45.887Z,4.50
2022-12-28T09:59:53.609Z,4.40
2022-12-28T10:10:01.850Z,3.60
2022-12-28T10:20:15.650Z,5.70
2022-12-28T10:30:21.156Z,4.30
2022-12-28T10:40:32.044Z,4.70
2022-12-28T10:50:47.277Z,2.40
2022-12-28T11:00:54.954Z,3.30
2022-12-28T11:11:02.332Z,5.40
2022-12-28T11:21:11.410Z,5.50
2022-12-28T11:31:17.294Z,3.90
2022-12-28T11:42:02.881Z,6.00
2022-12-28T11:52:38.840Z,6.00
2022-12-28T12:02:49.093Z,6.30
2022-12-28T12:12:57.061Z,7.00
2022-12-28T12:23:03.214Z,4.10
2022-12-28T12:33:13.896Z,5.70
2022-12-28T12:43:30.792Z,6.90
2022-12-28T12:53:49.955Z,7.70
2022-12-28T13:04:01.316Z,8.00
2022-12-28T13:14:17.221Z,4.80
2022-12-28T13:24:22.625Z,4.90
2022-12-28T13:34:33.922Z,4.70
2022-12-28T13:44:41.384Z,6.20
2022-12-28T13:54:47.364Z,7.30
2022-12-28T14:04:57.049Z,4.90
2022-12-28T14:15:05.515Z,5.90
2022-12-28T14:25:12.744Z,6.70
2022-12-28T14:35:17.790Z,7.90
2022-12-28T14:45:36.094Z,6.50
2022-12-28T14:56:02.275Z,4.80
2022-12-28T15:06:09.833Z,5.70
2022-12-28T15:16:18.448Z,10.60
2022-12-28T15:26:28.682Z,9.40
2022-12-28T15:36:35.988Z,9.30
2022-12-28T15:46:42.915Z,7.30
2022-12-28T15:56:55.873Z,6.90
2022-12-28T16:07:03.604Z,9.10
2022-12-28T16:17:10.892Z,9.90
2022-12-28T16:27:18.096Z,8.60
2022-12-28T16:37:25.751Z,9.10
2022-12-28T16:47:32.899Z,11.60
2022-12-28T16:57:40.296Z,13.80
2022-12-28T17:07:47.588Z,13.90
2022-12-28T17:17:54.895Z,11.00
2022-12-28T17:28:01.958Z,8.30
2022-12-28T17:38:11.419Z,9.50
2022-12-28T17:48:17.671Z,12.20
2022-12-28T17:58:26.766Z,8.70
2022-12-28T18:08:34.374Z,10.40
2022-12-28T18:18:42.076Z,12.40
2022-12-28T18:28:49.726Z,12.00
2022-12-28T18:38:55.744Z,11.50
2022-12-28T18:49:03.217Z,9.40
2022-12-28T18:59:10.340Z,11.60
2022-12-28T19:09:18.233Z,11.70
2022-12-28T19:19:25.434Z,14.00
2022-12-28T19:29:32.574Z,7.30
2022-12-28T19:39:40.067Z,7.10
2022-12-28T19:49:46.649Z,8.00
2022-12-28T19:59:53.907Z,7.50
2022-12-28T20:10:01.429Z,4.70
2022-12-28T20:20:10.524Z,6.10
2022-12-28T20:30:17.139Z,6.90
2022-12-28T20:40:24.287Z,7.00
2022-12-28T20:50:31.726Z,4.80
2022-12-28T21:00:38.603Z,4.10
2022-12-28T21:10:48.078Z,8.20
2022-12-28T21:20:55.766Z,7.50
2022-12-28T21:41:13.819Z,4.60
2022-12-28T21:51:39.061Z,6.40
2022-12-28T22:02:04.223Z,5.90
2022-12-28T22:12:28.545Z,6.80
2022-12-28T22:22:35.977Z,4.00
2022-12-28T22:32:43.174Z,7.50
2022-12-28T22:42:51.409Z,7.50
2022-12-28T22:52:57.488Z,8.40
2022-12-28T23:03:07.701Z,7.90
2022-12-28T23:13:15.648Z,6.30
2022-12-28T23:23:40.821Z,6.90
2022-12-28T23:33:47.897Z,5.80
2022-12-28T23:43:55.205Z,4.60
2022-12-28T23:54:02.573Z,2.80
